Time;durP1;ratioP1;P1;durP2;ratioP2;P2;SDS_P1;SDS_P2;PMS_P1;PMS_P2;Temp;Humidity;BMP_temperature;BMP_pressure;BME280_temperature;BME280_humidity;BME280_pressure;Samples;Min_cycle;Max_cycle;Signal;HPM_P1;HPM_P2
2020/12/24 00:04:03;;;;;;;25.45;13.05;;;;;;;4.68;100.00;95136.88;10536786;28;20132;-71
2020/12/24 00:09:04;;;;;;;30.83;13.48;;;;;;;4.40;100.00;95138.25;10537277;28;20491;-72
2020/12/24 00:14:05;;;;;;;30.77;14.27;;;;;;;4.21;100.00;95132.94;10537332;28;20044;-71
2020/12/24 00:19:05;;;;;;;31.70;13.80;;;;;;;4.12;100.00;95134.28;10536002;28;20523;-71
2020/12/24 00:24:06;;;;;;;30.80;14.50;;;;;;;4.11;100.00;95137.97;10536630;28;20135;-71
2020/12/24 00:29:07;;;;;;;25.50;13.10;;;;;;;3.91;100.00;95136.34;10536579;28;20054;-71
2020/12/24 00:34:07;;;;;;;36.70;15.30;;;;;;;3.84;100.00;95142.78;10536405;28;20036;-71
2020/12/24 00:39:08;;;;;;;37.03;16.35;;;;;;;3.79;100.00;95140.78;10535588;28;20032;-71
2020/12/24 00:44:08;;;;;;;36.83;18.10;;;;;;;3.42;100.00;95133.56;10536155;28;20036;-71
2020/12/24 00:49:09;;;;;;;45.85;20.48;;;;;;;3.22;100.00;95124.94;10535519;28;20028;-72
2020/12/24 00:54:09;;;;;;;42.70;20.15;;;;;;;3.11;100.00;95126.47;10535219;28;20127;-72
2020/12/24 00:59:10;;;;;;;39.97;19.42;;;;;;;3.22;100.00;95133.75;10534464;28;20371;-72
2020/12/24 01:04:10;;;;;;;45.25;20.65;;;;;;;3.25;100.00;95132.47;10495014;28;20584;-72
2020/12/24 01:09:11;;;;;;;39.92;18.80;;;;;;;3.26;100.00;95136.75;10492721;28;20032;-72
2020/12/24 01:14:11;;;;;;;43.78;19.27;;;;;;;3.17;100.00;95132.78;10492771;28;20115;-72
2020/12/24 01:19:12;;;;;;;41.65;16.63;;;;;;;3.02;100.00;95130.44;10492493;28;20783;-72
2020/12/24 01:24:13;;;;;;;41.97;17.35;;;;;;;2.91;100.00;95116.00;10492256;28;20525;-71
2020/12/24 01:29:13;;;;;;;37.78;19.00;;;;;;;2.90;100.00;95119.69;10492498;28;20492;-72
2020/12/24 01:34:15;;;;;;;37.83;18.52;;;;;;;3.01;100.00;95115.50;10492227;28;20028;-72
2020/12/24 01:39:15;;;;;;;44.72;17.00;;;;;;;2.89;100.00;95105.59;10491256;28;20078;-72
2020/12/24 01:44:16;;;;;;;37.45;16.90;;;;;;;3.02;100.00;95102.03;10492043;28;20119;-72
2020/12/24 01:49:18;;;;;;;31.20;16.27;;;;;;;2.94;100.00;95104.94;10491436;28;20054;-72
2020/12/24 01:54:20;;;;;;;29.60;13.77;;;;;;;3.12;100.00;95100.72;10490882;28;20040;-72
2020/12/24 01:59:21;;;;;;;32.05;15.23;;;;;;;3.24;100.00;95091.84;10491107;28;20029;-72
2020/12/24 02:04:21;;;;;;;30.83;13.70;;;;;;;3.23;100.00;95084.88;10491125;28;20048;-72
2020/12/24 02:09:22;;;;;;;27.92;12.60;;;;;;;3.32;100.00;95092.56;10490087;28;20028;-72
2020/12/24 02:14:22;;;;;;;26.02;11.82;;;;;;;3.43;100.00;95086.53;10490675;28;20036;-72
2020/12/24 02:19:22;;;;;;;29.83;13.32;;;;;;;3.45;100.00;95086.31;10489973;28;20037;-72
2020/12/24 02:24:23;;;;;;;24.02;11.88;;;;;;;3.54;100.00;95092.97;10489556;28;20511;-72
2020/12/24 02:29:24;;;;;;;30.50;12.93;;;;;;;3.47;100.00;95085.06;10472563;28;20096;-72
2020/12/24 02:34:24;;;;;;;28.17;13.02;;;;;;;3.41;100.00;95078.00;10489521;28;20040;-72
2020/12/24 02:39:25;;;;;;;27.60;12.50;;;;;;;3.36;100.00;95078.66;10488307;28;20032;-74
2020/12/24 02:44:25;;;;;;;27.35;12.80;;;;;;;3.30;100.00;95074.19;10489353;28;20062;-74
2020/12/24 02:49:26;;;;;;;25.10;13.23;;;;;;;3.37;100.00;95074.16;10489799;28;20032;-74
2020/12/24 02:54:26;;;;;;;25.13;12.07;;;;;;;3.22;100.00;95067.34;10489511;28;20096;-74
2020/12/24 02:59:27;;;;;;;30.45;13.32;;;;;;;3.14;100.00;95064.97;10488549;28;20032;-74
2020/12/24 03:04:28;;;;;;;24.20;13.77;;;;;;;3.02;100.00;95061.38;10489017;28;20039;-74
2020/12/24 03:09:29;;;;;;;23.63;12.27;;;;;;;2.95;100.00;95057.97;10488638;28;20533;-74
2020/12/24 03:14:29;;;;;;;28.60;12.27;;;;;;;2.98;100.00;95061.00;10470116;28;20052;-74
2020/12/24 03:19:29;;;;;;;24.95;11.98;;;;;;;2.95;100.00;95050.81;10488199;28;20044;-74
2020/12/24 03:24:30;;;;;;;27.38;13.27;;;;;;;3.00;100.00;95047.50;10469839;28;20778;-73
2020/12/24 03:29:31;;;;;;;26.05;11.13;;;;;;;3.12;100.00;95055.59;10487638;28;20044;-74
2020/12/24 03:34:31;;;;;;;25.65;11.85;;;;;;;3.17;100.00;95059.22;10470595;28;20412;-74
2020/12/24 03:39:31;;;;;;;19.92;9.75;;;;;;;3.25;100.00;95056.28;10487805;28;20032;-74
2020/12/24 03:44:32;;;;;;;17.90;8.55;;;;;;;3.30;100.00;95054.81;10487774;28;20036;-74
2020/12/24 03:49:33;;;;;;;20.42;10.07;;;;;;;3.35;100.00;95061.09;10469489;28;20032;-74
2020/12/24 03:54:33;;;;;;;21.80;9.30;;;;;;;3.43;100.00;95062.63;10487855;28;20085;-74
2020/12/24 03:59:33;;;;;;;18.33;9.40;;;;;;;3.33;100.00;95065.00;10487459;28;20035;-75
2020/12/24 04:04:34;;;;;;;28.08;12.23;;;;;;;3.31;100.00;95056.41;10487615;28;20279;-75
2020/12/24 04:09:34;;;;;;;23.98;11.30;;;;;;;3.19;100.00;95067.75;10487479;28;20094;-75
2020/12/24 04:14:37;;;;;;;22.98;11.57;;;;;;;3.06;100.00;95065.25;10486144;28;20028;-75
2020/12/24 04:19:37;;;;;;;22.40;11.30;;;;;;;2.84;100.00;95065.59;10485398;28;20504;-74
2020/12/24 04:24:38;;;;;;;22.40;11.45;;;;;;;2.78;100.00;95065.66;10487145;28;20033;-74
2020/12/24 04:29:38;;;;;;;21.50;11.17;;;;;;;2.74;100.00;95057.31;10486955;28;20514;-75
2020/12/24 04:34:38;;;;;;;28.93;11.77;;;;;;;2.73;100.00;95059.19;10492490;28;20290;-75
2020/12/24 04:39:39;;;;;;;28.27;12.68;;;;;;;2.70;100.00;95064.09;10494474;28;20290;-75
2020/12/24 04:44:41;;;;;;;26.95;12.35;;;;;;;2.69;100.00;95057.16;10495472;28;20048;-75
2020/12/24 04:49:42;;;;;;;25.02;14.23;;;;;;;2.74;100.00;95052.81;10535605;28;20604;-74
2020/12/24 04:54:42;;;;;;;27.98;11.93;;;;;;;2.79;100.00;95054.84;10517797;28;20034;-74
2020/12/24 04:59:44;;;;;;;29.98;13.63;;;;;;;2.74;100.00;95052.81;10517529;28;20034;-74
2020/12/24 05:04:44;;;;;;;31.30;13.95;;;;;;;2.43;100.00;95044.88;10516903;28;20415;-74
2020/12/24 05:09:50;;;;;;;22.77;13.20;;;;;;;2.62;100.00;95048.44;10535716;28;20035;-75
2020/12/24 05:14:50;;;;;;;24.15;13.82;;;;;;;2.61;100.00;95050.28;10534850;28;20316;-74
2020/12/24 05:20:05;;;;;;;23.27;12.35;;;;;;;2.65;100.00;95046.16;10534637;28;20047;-74
2020/12/24 05:25:10;;;;;;;33.50;14.05;;;;;;;2.62;100.00;95048.44;10492279;28;20071;-74
2020/12/24 05:30:11;;;;;;;39.63;15.85;;;;;;;2.69;100.00;95047.38;10508119;28;20032;-74
2020/12/24 05:35:12;;;;;;;31.73;15.87;;;;;;;2.57;100.00;95054.38;10492553;28;20105;-74
2020/12/24 05:40:28;;;;;;;35.13;16.02;;;;;;;2.45;100.00;95041.00;10492417;28;20420;-74
2020/12/24 05:45:30;;;;;;;25.77;15.05;;;;;;;2.53;100.00;95040.72;10491703;28;20032;-74
2020/12/24 05:50:31;;;;;;;34.80;16.98;;;;;;;2.62;100.00;95043.13;10491371;28;20033;-74
2020/12/24 05:55:32;;;;;;;28.83;15.90;;;;;;;2.59;100.00;95039.06;10491554;28;20037;-74
2020/12/24 06:00:42;;;;;;;33.35;18.60;;;;;;;2.43;100.00;95043.06;10491117;28;20287;-74
2020/12/24 06:05:55;;;;;;;34.20;18.40;;;;;;;2.46;100.00;95025.91;10491263;28;20066;-74
2020/12/24 06:11:01;;;;;;;33.92;17.80;;;;;;;2.52;100.00;95035.63;10490896;28;20028;-74
2020/12/24 06:16:04;;;;;;;32.85;18.58;;;;;;;2.64;100.00;95025.16;10494952;28;20133;-74
2020/12/24 06:21:18;;;;;;;39.38;19.08;;;;;;;2.76;100.00;95025.25;10531534;28;20119;-74
2020/12/24 06:26:21;;;;;;;43.20;18.92;;;;;;;2.73;100.00;95034.47;10507989;28;20037;-74
2020/12/24 06:31:22;;;;;;;39.85;18.95;;;;;;;2.67;100.00;95038.78;10490509;28;20029;-75
2020/12/24 06:36:34;;;;;;;37.72;20.52;;;;;;;2.74;100.00;95036.91;10489765;28;20043;-74
2020/12/24 06:41:39;;;;;;;38.70;20.63;;;;;;;2.90;100.00;95043.53;10489884;28;20039;-74
2020/12/24 06:46:58;;;;;;;47.28;21.45;;;;;;;3.03;100.00;95045.25;10508971;28;20042;-74
2020/12/24 06:51:59;;;;;;;38.88;20.92;;;;;;;3.16;100.00;95031.03;10489209;28;20450;-74
2020/12/24 06:57:40;;;;;;;37.03;21.23;;;;;;;3.44;100.00;95052.84;10488552;28;20082;-74
2020/12/24 07:02:40;;;;;;;41.97;22.33;;;;;;;3.69;100.00;95047.44;10401810;28;20140;-74
2020/12/24 07:07:43;;;;;;;37.10;21.50;;;;;;;3.98;100.00;95043.22;10469759;28;20352;-74
2020/12/24 07:12:52;;;;;;;58.90;23.48;;;;;;;4.18;100.00;95047.47;10488652;28;20659;-74
2020/12/24 07:17:54;;;;;;;44.70;20.95;;;;;;;4.47;100.00;95045.03;10488675;28;20103;-74
2020/12/24 07:22:55;;;;;;;53.45;24.25;;;;;;;4.69;100.00;95034.66;10488715;28;20044;-74
2020/12/24 07:27:56;;;;;;;47.72;22.63;;;;;;;4.75;100.00;95039.06;10486980;28;20029;-73
2020/12/24 07:32:57;;;;;;;54.55;26.45;;;;;;;4.92;100.00;95031.22;10486803;28;20036;-72
2020/12/24 07:37:58;;;;;;;45.20;24.67;;;;;;;5.07;100.00;95022.78;10469520;28;20071;-72
2020/12/24 07:43:09;;;;;;;53.83;24.70;;;;;;;5.14;100.00;95018.94;10506750;28;20115;-72
2020/12/24 07:48:18;;;;;;;45.10;21.08;;;;;;;5.28;100.00;95021.41;10521183;28;20317;-72
2020/12/24 07:53:22;;;;;;;;;;;;;;;5.50;100.00;95018.13;10526617;28;20040;-72
2020/12/24 07:58:23;;;;;;;45.42;22.02;;;;;;;5.68;100.00;95014.50;10507948;28;19920;-71
2020/12/24 08:03:23;;;;;;;47.23;22.23;;;;;;;6.01;100.00;95013.06;10523472;28;20044;-72
2020/12/24 08:08:24;;;;;;;44.70;24.00;;;;;;;6.37;100.00;95016.41;10528115;28;20537;-72
2020/12/24 08:13:24;;;;;;;44.45;21.50;;;;;;;6.86;100.00;95018.56;10528136;28;20035;-72
2020/12/24 08:18:33;;;;;;;38.33;22.33;;;;;;;7.25;100.00;95010.59;10531706;28;20046;-73
2020/12/24 08:23:49;;;;;;;44.17;22.45;;;;;;;7.57;100.00;95021.47;10531710;28;20282;-77
2020/12/24 08:29:05;;;;;;;38.30;19.98;;;;;;;7.93;100.00;95021.16;10494220;28;20113;-72
2020/12/24 08:34:09;;;;;;;39.58;18.58;;;;;;;8.42;100.00;95020.34;10517390;28;20039;-72
2020/12/24 08:39:12;;;;;;;35.83;17.75;;;;;;;8.87;100.00;95016.50;10514991;28;20040;-74
2020/12/24 08:44:17;;;;;;;37.08;19.25;;;;;;;8.94;100.00;95017.09;10529265;28;20039;-74
2020/12/24 08:49:22;;;;;;;41.40;17.50;;;;;;;8.74;100.00;95017.72;10489992;28;20032;-73
2020/12/24 08:54:23;;;;;;;35.42;16.65;;;;;;;9.26;100.00;95010.09;10489870;28;20478;-75
2020/12/24 08:59:23;;;;;;;33.17;16.40;;;;;;;9.73;100.00;95002.06;10528040;28;20028;-73
2020/12/24 09:04:24;;;;;;;34.35;17.65;;;;;;;9.89;100.00;94980.66;10526992;28;20020;-73
2020/12/24 09:09:26;;;;;;;38.30;19.23;;;;;;;10.57;100.00;94964.47;10527457;28;20024;-73
2020/12/24 09:14:28;;;;;;;45.55;22.58;;;;;;;11.13;100.00;94970.94;10527662;28;20403;-73
2020/12/24 09:19:28;;;;;;;44.22;22.02;;;;;;;10.97;100.00;94954.00;10514495;28;20045;-72
2020/12/24 09:24:29;;;;;;;44.88;22.50;;;;;;;11.14;100.00;94947.53;10489787;28;20032;-72
2020/12/24 09:29:29;;;;;;;43.03;22.85;;;;;;;11.14;100.00;94934.09;10488266;28;20489;-73
2020/12/24 09:34:30;;;;;;;40.50;20.77;;;;;;;11.30;100.00;94930.28;10470028;28;20128;-73
2020/12/24 09:39:30;;;;;;;52.20;21.50;;;;;;;11.28;100.00;94919.78;10488479;28;20178;-72
2020/12/24 09:44:31;;;;;;;43.13;20.47;;;;;;;11.62;100.00;94915.66;10489873;28;20476;-74
2020/12/24 09:49:31;;;;;;;39.38;19.70;;;;;;;12.10;100.00;94917.91;10488036;28;20033;-73
2020/12/24 09:54:32;;;;;;;40.23;19.57;;;;;;;13.01;90.33;94893.22;10487765;28;20040;-73
2020/12/24 09:59:32;;;;;;;40.93;19.37;;;;;;;14.44;74.07;94887.22;10488366;28;20535;-72
2020/12/24 10:04:33;;;;;;;38.63;17.83;;;;;;;15.26;66.74;94884.25;10494109;28;20591;-73
2020/12/24 10:09:33;;;;;;;40.87;18.27;;;;;;;15.45;61.99;94881.47;10528761;28;20032;-73
2020/12/24 10:14:33;;;;;;;42.23;19.27;;;;;;;15.67;60.48;94883.47;10528607;28;20289;-73
2020/12/24 10:19:34;;;;;;;41.65;18.73;;;;;;;16.57;57.56;94863.91;10528194;28;20044;-73
2020/12/24 10:24:34;;;;;;;36.97;18.43;;;;;;;17.36;52.85;94842.69;10508930;28;20032;-73
2020/12/24 10:29:34;;;;;;;33.00;18.03;;;;;;;18.42;49.59;94841.81;10528212;28;20510;-73
2020/12/24 10:34:35;;;;;;;35.57;17.87;;;;;;;18.92;47.36;94830.41;10528439;28;20442;-73
2020/12/24 10:39:35;;;;;;;37.40;18.10;;;;;;;18.93;46.08;94826.53;10488641;28;20458;-73
2020/12/24 10:44:35;;;;;;;37.30;18.30;;;;;;;18.87;45.70;94811.50;10484381;28;20293;-73
2020/12/24 10:49:39;;;;;;;43.30;19.90;;;;;;;18.54;46.69;94808.50;10485846;28;20043;-73
2020/12/24 10:54:39;;;;;;;42.60;20.20;;;;;;;18.47;47.24;94806.25;10508858;28;20028;-74
2020/12/24 10:59:39;;;;;;;39.13;19.20;;;;;;;18.10;47.09;94795.72;10504702;28;20045;-74
2020/12/24 11:04:40;;;;;;;36.43;20.53;;;;;;;18.34;47.39;94793.63;10511800;28;20039;-74
2020/12/24 11:09:40;;;;;;;41.63;20.93;;;;;;;18.35;47.45;94782.44;10528466;28;20512;-74
2020/12/24 11:14:40;;;;;;;32.70;18.23;;;;;;;19.14;45.34;94776.81;10527518;28;20281;-73
2020/12/24 11:19:41;;;;;;;42.80;19.33;;;;;;;18.10;47.39;94773.16;10527744;28;20294;-74
2020/12/24 11:24:42;;;;;;;47.25;21.92;;;;;;;17.01;50.17;94767.31;10522993;28;20106;-74
2020/12/24 11:29:42;;;;;;;65.03;24.73;;;;;;;15.81;55.60;94769.66;10484673;28;20034;-74
2020/12/24 11:34:42;;;;;;;51.67;21.77;;;;;;;15.03;61.99;94767.75;10485736;28;20032;-74
2020/12/24 11:39:43;;;;;;;40.67;21.55;;;;;;;13.69;75.22;94748.31;10483377;28;20028;-74
2020/12/24 11:44:43;;;;;;;43.87;22.63;;;;;;;13.06;79.38;94750.19;10484338;28;20025;-74
2020/12/24 11:49:43;;;;;;;37.47;20.90;;;;;;;12.93;79.52;94735.47;10466890;28;20286;-77
2020/12/24 11:54:44;;;;;;;47.17;23.80;;;;;;;12.83;83.92;94722.91;10484942;28;20040;-72
2020/12/24 11:59:44;;;;;;;46.90;24.17;;;;;;;12.67;84.09;94713.41;10491731;28;20301;-72
2020/12/24 12:04:45;;;;;;;38.72;20.08;;;;;;;12.45;84.60;94706.63;10501605;28;20024;-72
2020/12/24 12:09:46;;;;;;;41.00;21.53;;;;;;;12.19;90.20;94699.88;10525810;28;20387;-74
2020/12/24 12:14:46;;;;;;;47.97;23.15;;;;;;;11.54;97.28;94698.19;10526428;28;20292;-72
2020/12/24 12:19:47;;;;;;;43.92;22.35;;;;;;;11.26;100.00;94676.31;10525397;28;20051;-72
2020/12/24 12:24:47;;;;;;;49.93;22.13;;;;;;;11.46;100.00;94678.09;10526855;28;20040;-73
2020/12/24 12:29:47;;;;;;;39.93;20.10;;;;;;;11.35;100.00;94685.41;10526724;28;20309;-73
2020/12/24 12:34:48;;;;;;;39.85;20.02;;;;;;;11.26;100.00;94670.94;10507993;28;20036;-73
2020/12/24 12:39:51;;;;;;;39.83;20.92;;;;;;;11.55;100.00;94672.91;10526021;28;20043;-73
2020/12/24 12:44:51;;;;;;;42.90;19.55;;;;;;;11.71;100.00;94657.44;10497799;28;20044;-74
2020/12/24 12:49:52;;;;;;;31.63;15.10;;;;;;;11.87;94.37;94658.91;10483365;28;20396;-72
2020/12/24 12:54:53;;;;;;;31.52;16.17;;;;;;;11.99;93.91;94655.06;10484957;28;20297;-74
2020/12/24 12:59:53;;;;;;;26.75;13.38;;;;;;;12.07;92.19;94657.13;10489759;28;20063;-73
2020/12/24 13:04:54;;;;;;;32.85;14.05;;;;;;;12.08;90.87;94653.38;10498913;28;20094;-73
2020/12/24 13:09:55;;;;;;;25.50;12.70;;;;;;;11.88;92.13;94643.56;10514141;28;20413;-73
2020/12/24 13:14:55;;;;;;;24.77;11.93;;;;;;;11.83;93.17;94643.59;10531982;28;20028;-73
2020/12/24 13:19:56;;;;;;;32.37;13.33;;;;;;;11.90;93.42;94636.00;10532313;28;20080;-73
2020/12/24 13:24:56;;;;;;;26.50;13.73;;;;;;;11.97;92.72;94625.72;10532430;28;20664;-72
2020/12/24 13:29:57;;;;;;;40.37;13.60;;;;;;;11.91;92.45;94629.53;10531990;28;20024;-72
2020/12/24 13:34:57;;;;;;;32.53;14.43;;;;;;;11.99;93.76;94623.56;10529836;28;20339;-72
2020/12/24 13:39:58;;;;;;;37.05;16.27;;;;;;;11.84;95.50;94626.38;10514254;28;20032;-72
2020/12/24 13:44:59;;;;;;;29.08;16.17;;;;;;;11.91;97.05;94619.56;10520144;28;20028;-72
2020/12/24 13:49:59;;;;;;;40.55;19.73;;;;;;;11.92;95.54;94617.69;10529473;28;20035;-72
2020/12/24 13:55:00;;;;;;;33.78;17.73;;;;;;;11.83;96.32;94620.16;10511985;28;20031;-73
2020/12/24 14:00:00;;;;;;;35.10;17.83;;;;;;;11.74;97.42;94622.69;10529544;28;20036;-73
2020/12/24 14:05:00;;;;;;;42.30;15.73;;;;;;;11.69;97.89;94614.63;10530204;28;20050;-72
2020/12/24 14:10:01;;;;;;;29.02;15.18;;;;;;;11.58;98.25;94616.63;10503714;28;20279;-75
2020/12/24 14:15:02;;;;;;;36.95;16.73;;;;;;;11.49;100.00;94622.91;10488534;28;20139;-72
2020/12/24 14:20:03;;;;;;;38.25;18.35;;;;;;;11.20;100.00;94615.56;10488876;28;20041;-73
2020/12/24 14:25:04;;;;;;;41.20;18.88;;;;;;;11.17;100.00;94627.69;10521402;28;20032;-72
2020/12/24 14:30:04;;;;;;;38.13;19.20;;;;;;;11.14;100.00;94612.13;10515131;28;20052;-72
2020/12/24 14:35:05;;;;;;;41.50;17.08;;;;;;;11.00;100.00;94616.53;10526925;28;20035;-72
2020/12/24 14:40:05;;;;;;;47.40;17.60;;;;;;;10.91;100.00;94621.66;10491682;28;20033;-72
2020/12/24 14:45:06;;;;;;;38.00;16.60;;;;;;;10.76;100.00;94630.63;10489546;28;20036;-73
2020/12/24 14:50:06;;;;;;;33.83;16.85;;;;;;;10.60;100.00;94621.81;10487483;28;20039;-73
2020/12/24 14:55:07;;;;;;;27.63;13.90;;;;;;;10.49;100.00;94621.06;10487736;28;20143;-73
2020/12/24 15:00:07;;;;;;;39.05;17.05;;;;;;;10.30;100.00;94617.34;10486554;28;20029;-74
2020/12/24 15:05:08;;;;;;;31.38;15.63;;;;;;;10.07;100.00;94616.88;10498172;28;20043;-74
2020/12/24 15:10:08;;;;;;;27.77;11.00;;;;;;;9.93;100.00;94608.59;10510279;28;20031;-75
2020/12/24 15:15:11;;;;;;;26.15;12.98;;;;;;;9.83;100.00;94609.41;10488105;28;20298;-74
2020/12/24 15:20:12;;;;;;;30.55;14.65;;;;;;;9.79;100.00;94608.34;10502394;28;20093;-74
2020/12/24 15:25:12;;;;;;;24.83;13.93;;;;;;;9.72;100.00;94611.28;10507157;28;20040;-74
2020/12/24 15:30:13;;;;;;;61.25;18.27;;;;;;;9.62;100.00;94614.00;10523012;28;20350;-74
2020/12/24 15:35:13;;;;;;;43.25;14.68;;;;;;;9.54;100.00;94610.00;10525512;28;20532;-74
2020/12/24 15:40:14;;;;;;;33.03;15.65;;;;;;;9.44;100.00;94604.63;10504936;28;20462;-74
2020/12/24 15:45:15;;;;;;;47.70;16.40;;;;;;;9.22;100.00;94605.69;10525136;28;20805;-74
2020/12/24 15:50:15;;;;;;;50.40;17.50;;;;;;;9.10;100.00;94599.78;10524392;28;20032;-74
2020/12/24 15:55:16;;;;;;;53.90;19.67;;;;;;;8.87;100.00;94587.69;10525445;28;20036;-74
2020/12/24 16:00:17;;;;;;;47.20;17.63;;;;;;;8.80;100.00;94593.31;10522597;28;20367;-75
2020/12/24 16:05:17;;;;;;;51.42;19.33;;;;;;;8.64;100.00;94595.16;10522510;28;20040;-74
2020/12/24 16:22:52;;;;;;;51.10;18.80;;;;;;;8.37;100.00;94598.78;10499932;28;20107;-74
2020/12/24 16:28:16;;;;;;;51.15;22.75;;;;;;;8.33;100.00;94599.56;10501716;28;20060;-74
2020/12/24 16:33:19;;;;;;;49.92;21.13;;;;;;;8.24;100.00;94601.16;10477658;28;20089;-74
2020/12/24 16:38:19;;;;;;;47.38;20.67;;;;;;;8.13;100.00;94602.97;10511940;28;20768;-74
2020/12/24 16:43:21;;;;;;;48.03;22.92;;;;;;;7.98;100.00;94609.88;10496536;28;20079;-73
2020/12/24 16:48:21;;;;;;;52.17;24.38;;;;;;;8.19;100.00;94608.09;10506998;28;20028;-74
2020/12/24 16:53:23;;;;;;;53.17;24.83;;;;;;;8.29;100.00;94615.38;10509302;28;20070;-73
2020/12/24 16:58:25;;;;;;;55.42;23.92;;;;;;;8.42;100.00;94603.34;10502997;28;20386;-76
2020/12/24 17:03:26;;;;;;;56.25;26.63;;;;;;;8.55;100.00;94604.75;10487149;28;20414;-74
2020/12/24 17:08:27;;;;;;;55.65;24.45;;;;;;;8.61;100.00;94611.75;10506005;28;20029;-75
2020/12/24 17:13:27;;;;;;;57.17;25.15;;;;;;;8.68;100.00;94612.31;10482762;28;20025;-75
2020/12/24 17:18:28;;;;;;;60.13;24.07;;;;;;;8.78;100.00;94608.84;10471224;28;20044;-74
2020/12/24 17:23:28;;;;;;;61.65;25.40;;;;;;;8.82;100.00;94611.78;10484762;28;20048;-75
2020/12/24 17:28:29;;;;;;;63.53;27.58;;;;;;;8.78;100.00;94614.22;10486525;28;20090;-75
2020/12/24 17:33:29;;;;;;;49.33;24.10;;;;;;;8.82;100.00;94611.78;10488270;28;20020;-75
2020/12/24 17:38:29;;;;;;;63.07;27.27;;;;;;;8.87;100.00;94609.13;10488196;28;20036;-75
2020/12/24 17:43:30;;;;;;;57.40;26.73;;;;;;;8.89;100.00;94621.19;10488509;28;20062;-76
2020/12/24 17:48:30;;;;;;;64.53;31.90;;;;;;;8.88;100.00;94610.75;10490088;28;20028;-75
2020/12/24 17:53:31;;;;;;;64.03;28.92;;;;;;;8.82;100.00;94611.78;10464233;28;20090;-76
2020/12/24 17:58:31;;;;;;;65.77;31.33;;;;;;;8.74;100.00;94615.00;10509532;28;20065;-76
2020/12/24 18:03:33;;;;;;;60.65;29.05;;;;;;;8.63;100.00;94624.88;10480683;28;20040;-76
2020/12/24 18:08:34;;;;;;;66.15;26.52;;;;;;;8.59;100.00;94613.88;10471518;28;20103;-76
2020/12/24 18:13:35;;;;;;;55.17;28.88;;;;;;;8.61;100.00;94617.13;10470774;28;20025;-76
2020/12/24 18:18:35;;;;;;;64.65;30.00;;;;;;;8.68;100.00;94606.94;10501805;28;20056;-75
2020/12/24 18:23:38;;;;;;;58.72;25.98;;;;;;;8.91;100.00;94604.84;10504481;28;20051;-74
2020/12/24 18:28:39;;;;;;;56.78;26.17;;;;;;;8.87;100.00;94587.69;10509481;28;20039;-76
2020/12/24 18:33:39;;;;;;;52.28;25.08;;;;;;;8.95;100.00;94581.81;10526565;28;20023;-76
2020/12/24 18:38:42;;;;;;;52.00;25.50;;;;;;;9.03;100.00;94570.56;10524154;28;20035;-76
2020/12/24 18:43:43;;;;;;;44.85;19.90;;;;;;;9.07;100.00;94571.63;10522147;28;20676;-75
2020/12/24 18:48:43;;;;;;;40.13;18.50;;;;;;;9.09;100.00;94563.31;10525175;28;20031;-75
2020/12/24 18:53:44;;;;;;;38.13;19.80;;;;;;;8.96;100.00;94572.69;10508666;28;20107;-75
2020/12/24 18:58:45;;;;;;;40.10;19.05;;;;;;;8.87;100.00;94569.75;10507921;28;20421;-76
2020/12/24 19:03:45;;;;;;;48.93;20.40;;;;;;;8.81;100.00;94583.41;10524316;28;20036;-75
2020/12/24 19:08:46;;;;;;;37.60;19.03;;;;;;;8.74;100.00;94580.19;10527214;28;20028;-76
2020/12/24 19:13:48;;;;;;;43.10;20.02;;;;;;;8.74;100.00;94577.50;10519315;28;21192;-74
2020/12/24 19:18:49;;;;;;;45.70;21.48;;;;;;;8.68;100.00;94571.34;10523967;28;20127;-75
2020/12/24 19:23:50;;;;;;;48.60;22.02;;;;;;;8.61;100.00;94574.25;10525871;28;20040;-75
2020/12/24 19:28:50;;;;;;;53.03;23.05;;;;;;;8.50;100.00;94570.75;10524886;28;20032;-75
2020/12/24 19:33:50;;;;;;;60.50;22.73;;;;;;;8.52;100.00;94567.78;10522952;28;20047;-75
2020/12/24 19:38:51;;;;;;;57.08;25.35;;;;;;;8.45;100.00;94576.06;10522868;28;20028;-75
2020/12/24 19:43:53;;;;;;;48.80;22.85;;;;;;;8.33;100.00;94570.94;10524361;28;20020;-75
2020/12/24 19:48:53;;;;;;;58.28;24.52;;;;;;;8.19;100.00;94554.56;10522330;28;20020;-75
2020/12/24 19:53:54;;;;;;;51.95;23.38;;;;;;;8.14;100.00;94567.13;10524852;28;20050;-75
2020/12/24 19:58:54;;;;;;;47.13;23.35;;;;;;;7.79;100.00;94560.53;10524242;28;20536;-75
2020/12/24 20:03:54;;;;;;;55.23;25.60;;;;;;;7.76;100.00;94550.31;10492608;28;20021;-75
2020/12/24 20:08:55;;;;;;;52.53;23.37;;;;;;;7.75;100.00;94557.56;10535671;28;20032;-76
2020/12/24 20:13:55;;;;;;;60.10;26.07;;;;;;;7.73;100.00;94546.31;10517167;28;20032;-75
2020/12/24 20:18:55;;;;;;;57.03;27.45;;;;;;;7.69;100.00;94543.34;10510512;28;20044;-75
2020/12/24 20:23:56;;;;;;;51.80;25.73;;;;;;;7.66;100.00;94543.88;10493448;28;20123;-75
2020/12/24 20:28:56;;;;;;;48.27;23.77;;;;;;;7.62;100.00;94521.38;10492369;28;20024;-75
2020/12/24 20:33:56;;;;;;;49.27;24.90;;;;;;;7.78;100.00;94529.50;10491556;28;20271;-74
2020/12/24 20:38:57;;;;;;;47.25;24.10;;;;;;;7.82;100.00;94544.75;10533973;28;20289;-74
2020/12/24 20:43:57;;;;;;;57.60;27.37;;;;;;;7.83;100.00;94550.91;10534867;28;20024;-76
2020/12/24 20:48:58;;;;;;;67.05;29.13;;;;;;;7.85;100.00;94554.13;10537997;28;20963;-76
2020/12/24 20:53:58;;;;;;;69.17;30.83;;;;;;;7.79;100.00;94555.19;10514261;28;20035;-76
2020/12/24 20:58:58;;;;;;;68.27;32.13;;;;;;;7.68;100.00;94548.97;10533050;28;20024;-76
2020/12/24 21:03:59;;;;;;;45.47;24.58;;;;;;;7.47;100.00;94545.38;10493571;28;20032;-76
2020/12/24 21:09:00;;;;;;;73.10;31.35;;;;;;;7.46;100.00;94544.53;10514789;28;20103;-76
2020/12/24 21:14:00;;;;;;;58.45;29.95;;;;;;;7.34;100.00;94539.41;10492793;28;20380;-76
2020/12/24 21:19:00;;;;;;;61.08;30.67;;;;;;;7.29;100.00;94543.91;10473090;28;20859;-76
2020/12/24 21:24:01;;;;;;;56.33;28.80;;;;;;;7.23;100.00;94545.75;10508122;28;20131;-76
2020/12/24 21:29:01;;;;;;;56.47;25.23;;;;;;;7.06;100.00;94545.91;10531285;28;20081;-76
2020/12/24 21:34:02;;;;;;;57.33;27.80;;;;;;;6.90;100.00;94546.81;10531717;28;20059;-76
2020/12/24 21:39:02;;;;;;;56.17;26.27;;;;;;;6.87;100.00;94545.47;10531057;28;20463;-76
2020/12/24 21:44:04;;;;;;;51.58;28.63;;;;;;;6.96;100.00;94541.28;10531751;28;20042;-75
2020/12/24 21:49:10;;;;;;;63.95;29.48;;;;;;;6.78;100.00;94549.66;10532288;28;20038;-76
2020/12/24 21:54:10;;;;;;;47.17;23.90;;;;;;;6.87;100.00;94516.06;10531670;28;20047;-76
2020/12/24 21:59:11;;;;;;;45.73;24.30;;;;;;;6.90;100.00;94518.22;10530808;28;20475;-76
2020/12/24 22:04:12;;;;;;;44.67;23.50;;;;;;;6.96;100.00;94511.88;10530613;28;20049;-76
2020/12/24 22:09:13;;;;;;;53.85;26.23;;;;;;;7.03;100.00;94502.84;10497361;28;20383;-76
2020/12/24 22:14:13;;;;;;;38.50;19.27;;;;;;;7.05;100.00;94503.38;10509538;28;20036;-76
2020/12/24 22:19:14;;;;;;;38.97;20.03;;;;;;;7.10;100.00;94514.94;10489099;28;20492;-76
2020/12/24 22:24:15;;;;;;;40.50;19.97;;;;;;;6.98;100.00;94514.31;10470090;28;20058;-75
2020/12/24 22:29:16;;;;;;;47.50;20.85;;;;;;;6.97;100.00;94502.78;10488907;28;20031;-75
2020/12/24 22:34:17;;;;;;;35.42;18.08;;;;;;;6.96;100.00;94495.84;10489307;28;20162;-77
2020/12/24 22:39:17;;;;;;;32.90;17.67;;;;;;;7.03;100.00;94497.50;10471109;28;20025;-81
2020/12/24 22:44:18;;;;;;;37.77;19.93;;;;;;;6.99;100.00;94492.66;10488948;28;20036;-78
2020/12/24 22:49:18;;;;;;;31.83;16.70;;;;;;;7.09;100.00;94491.09;10489426;28;20274;-77
2020/12/24 22:54:19;;;;;;;43.20;16.90;;;;;;;6.94;100.00;94489.16;10487955;28;20025;-78
2020/12/24 22:59:19;;;;;;;34.10;16.73;;;;;;;6.99;100.00;94486.50;10504459;28;20036;-77
2020/12/24 23:04:19;;;;;;;34.73;16.23;;;;;;;6.84;100.00;94482.66;10492927;28;20274;-78